Centerville, Missouri
Current Conditions -  °F | °C
As of 10:53 AM on Friday 31 Oct 2014 (Local Time) from KPOF Reporting Station
Overcast Overcast  
Wind Chill: 52°   Ceiling: 3300
Heat Index: 52°   Visibility: 8mi
Dew Point: 39°   Wind: 15mph
Humidity: 61%   Direction: 320°NW
Pressure: 30.18"   Gusts: NA
Location:  37.44°N, 90.96°W
Report Text: KPOF 311553Z AUTO 32013KT 8SM BKN033 OVC040 11/04 A3018 RMK AO2 PK WND 35030/1509 SLP220 T01110039
Loading
Personal Weather Stations






























Interactive Weather Map
Tropical Storm Tracking
New forecast layout! Learn more

10-Day Weather Forecast

Advertisements
Track Severe Weather on mobile